Time;durP1;ratioP1;P1;durP2;ratioP2;P2;SDS_P1;SDS_P2;PMS_P1;PMS_P2;Temp;Humidity;BMP_temperature;BMP_pressure;BME280_temperature;BME280_humidity;BME280_pressure;Samples;Min_cycle;Max_cycle;Signal;HPM_P1;HPM_P2
2023/03/19 00:00:44;;;;;;;15.30;13.40;;;7.10;61.50;;;;;;6251845;28;20486;-60
2023/03/19 00:03:49;;;;;;;16.47;12.70;;;7.10;61.60;;;;;;6251580;28;20467;-60
2023/03/19 00:06:53;;;;;;;14.50;12.73;;;7.00;61.90;;;;;;6237940;28;20530;-60
2023/03/19 00:09:56;;;;;;;15.77;12.13;;;7.00;62.00;;;;;;6226753;28;20487;-60
2023/03/19 00:12:59;;;;;;;22.43;13.17;;;7.00;62.50;;;;;;6242761;28;20475;-60
2023/03/19 00:16:03;;;;;;;14.37;11.80;;;6.90;63.60;;;;;;6251351;28;20471;-60
2023/03/19 00:19:07;;;;;;;15.37;12.33;;;6.90;62.90;;;;;;6232641;28;20926;-60
2023/03/19 00:22:10;;;;;;;15.00;12.40;;;6.90;63.10;;;;;;6218190;28;20819;-60
2023/03/19 00:25:13;;;;;;;12.93;11.63;;;6.90;63.40;;;;;;6226838;28;20495;-60
2023/03/19 00:28:17;;;;;;;14.63;11.53;;;6.80;63.30;;;;;;6226498;28;20468;-60
2023/03/19 00:31:20;;;;;;;14.60;10.70;;;6.80;63.60;;;;;;6226612;28;20479;-60
2023/03/19 00:34:25;;;;;;;15.53;12.53;;;6.80;64.00;;;;;;6225962;28;20495;-60
2023/03/19 00:37:29;;;;;;;14.87;12.50;;;6.80;64.20;;;;;;6226398;28;20476;-60
2023/03/19 00:40:32;;;;;;;17.50;12.50;;;6.70;64.30;;;;;;6240841;28;20793;-60
2023/03/19 00:43:35;;;;;;;14.43;12.90;;;6.70;64.40;;;;;;6250745;28;20471;-60
2023/03/19 00:46:38;;;;;;;17.37;12.03;;;6.70;64.60;;;;;;6250553;28;20956;-60
2023/03/19 00:49:43;;;;;;;14.57;12.47;;;6.70;64.70;;;;;;6250346;28;20791;-60
2023/03/19 00:52:46;;;;;;;15.40;12.70;;;6.70;65.10;;;;;;6250934;28;20471;-60
2023/03/19 00:55:49;;;;;;;13.40;12.00;;;6.70;65.10;;;;;;6249829;28;20502;-60
2023/03/19 00:58:52;;;;;;;13.83;12.07;;;6.70;65.20;;;;;;6249798;28;20479;-60
2023/03/19 01:01:56;;;;;;;17.87;13.87;;;6.60;65.70;;;;;;6249549;28;20463;-60
2023/03/19 01:05:00;;;;;;;15.23;11.90;;;6.60;66.10;;;;;;6250310;28;20474;-60
2023/03/19 01:08:03;;;;;;;15.47;12.57;;;6.60;66.30;;;;;;6226651;28;20965;-60
2023/03/19 01:11:08;;;;;;;15.53;12.70;;;6.60;66.30;;;;;;6226327;28;20474;-60
2023/03/19 01:14:11;;;;;;;11.90;10.57;;;6.50;66.50;;;;;;6249878;28;20475;-60
2023/03/19 01:17:15;;;;;;;16.67;11.90;;;6.50;66.80;;;;;;6246534;28;20538;-60
2023/03/19 01:20:22;;;;;;;15.97;11.60;;;6.50;66.90;;;;;;6225251;28;20530;-60
2023/03/19 01:23:26;;;;;;;16.70;11.80;;;6.50;67.30;;;;;;6225593;28;20475;-60
2023/03/19 01:26:29;;;;;;;17.13;12.73;;;6.50;67.30;;;;;;6220923;28;20949;-59
2023/03/19 01:29:32;;;;;;;15.43;11.90;;;6.40;67.30;;;;;;6224863;28;20471;-60
2023/03/19 01:32:35;;;;;;;13.40;12.00;;;6.40;67.70;;;;;;6225513;28;20568;-60
2023/03/19 01:35:41;;;;;;;15.00;11.77;;;6.40;68.00;;;;;;6224402;28;20802;-60
2023/03/19 01:38:44;;;;;;;16.23;12.40;;;6.30;68.40;;;;;;6225106;28;20444;-60
2023/03/19 01:41:47;;;;;;;15.50;12.50;;;6.30;68.60;;;;;;6249488;28;20486;-59
2023/03/19 01:44:51;;;;;;;17.10;12.23;;;6.30;69.00;;;;;;6249922;28;20466;-59
2023/03/19 01:47:54;;;;;;;20.07;12.33;;;6.30;69.20;;;;;;6249697;28;20465;-60
2023/03/19 01:51:01;;;;;;;13.20;11.17;;;6.30;69.20;;;;;;6249546;28;20765;-60
2023/03/19 01:54:07;;;;;;;14.83;10.87;;;6.20;69.50;;;;;;6249147;28;20483;-59
2023/03/19 01:57:13;;;;;;;14.10;12.57;;;6.20;69.60;;;;;;6248936;28;20808;-60
2023/03/19 02:00:16;;;;;;;13.33;11.90;;;6.20;70.00;;;;;;6248932;28;20525;-60
2023/03/19 02:03:20;;;;;;;14.73;11.90;;;6.20;70.10;;;;;;6249118;28;20467;-59
2023/03/19 02:06:27;;;;;;;13.77;12.07;;;6.10;70.40;;;;;;6239292;28;20472;-59
2023/03/19 02:09:32;;;;;;;12.27;11.00;;;6.10;70.70;;;;;;6224236;28;20491;-59
2023/03/19 02:12:35;;;;;;;15.27;13.20;;;6.10;71.00;;;;;;6237164;28;20486;-59
2023/03/19 02:15:38;;;;;;;13.63;11.73;;;6.10;71.40;;;;;;6248253;28;20772;-59
2023/03/19 02:18:42;;;;;;;15.10;12.03;;;6.10;71.70;;;;;;6234308;28;20472;-60
2023/03/19 02:21:46;;;;;;;13.97;12.47;;;6.10;71.70;;;;;;6227066;28;20468;-60
2023/03/19 02:24:53;;;;;;;13.57;12.10;;;6.00;71.60;;;;;;6224526;28;20476;-60
2023/03/19 02:27:58;;;;;;;15.50;12.50;;;6.00;72.20;;;;;;6224190;28;20977;-60
2023/03/19 02:31:01;;;;;;;15.87;12.80;;;6.00;72.30;;;;;;6224247;28;20499;-59
2023/03/19 02:34:06;;;;;;;16.97;12.20;;;6.00;72.50;;;;;;6224021;28;20476;-59
2023/03/19 02:37:16;;;;;;;12.80;11.40;;;6.00;72.70;;;;;;6224202;28;20490;-59
2023/03/19 02:40:24;;;;;;;11.80;10.60;;;6.00;72.80;;;;;;6236791;28;20498;-60
2023/03/19 02:43:29;;;;;;;14.93;11.50;;;6.00;72.60;;;;;;6248313;28;20831;-59
2023/03/19 02:46:33;;;;;;;15.73;12.07;;;6.00;72.90;;;;;;6248697;28;20474;-59
2023/03/19 02:49:36;;;;;;;13.33;11.97;;;6.00;73.10;;;;;;6248507;28;20816;-59
2023/03/19 02:52:39;;;;;;;20.00;14.10;;;6.00;73.30;;;;;;6248057;28;20479;-59
2023/03/19 02:55:42;;;;;;;15.87;12.03;;;6.00;73.60;;;;;;6248143;28;20498;-60
2023/03/19 02:58:47;;;;;;;15.63;11.80;;;6.00;73.70;;;;;;6248716;28;20774;-60
2023/03/19 03:01:50;;;;;;;12.67;11.20;;;5.90;73.90;;;;;;6248465;28;20486;-60
2023/03/19 03:04:53;;;;;;;12.43;11.20;;;5.90;74.30;;;;;;6249343;28;20514;-60
2023/03/19 03:07:56;;;;;;;13.57;12.00;;;5.90;74.60;;;;;;6225986;28;20472;-60
2023/03/19 03:11:00;;;;;;;17.60;12.10;;;5.90;75.10;;;;;;6223658;28;20472;-60
2023/03/19 03:14:04;;;;;;;15.20;12.63;;;5.80;75.30;;;;;;6247747;28;20482;-60
2023/03/19 03:17:08;;;;;;;12.23;10.93;;;5.80;75.50;;;;;;6244996;28;20606;-60
2023/03/19 03:20:13;;;;;;;17.30;11.70;;;5.80;75.90;;;;;;6224167;28;20475;-60
2023/03/19 03:23:16;;;;;;;17.63;13.17;;;5.80;76.00;;;;;;6228208;28;20467;-60
2023/03/19 03:26:20;;;;;;;14.90;12.03;;;5.70;76.30;;;;;;6227931;28;20605;-60
2023/03/19 03:29:24;;;;;;;13.63;12.13;;;5.60;76.90;;;;;;6227828;28;20541;-61
2023/03/19 03:32:27;;;;;;;14.97;11.87;;;5.60;77.40;;;;;;6227360;28;20537;-62
2023/03/19 03:35:31;;;;;;;13.87;11.87;;;5.60;77.60;;;;;;6219100;28;20484;-61
2023/03/19 03:38:34;;;;;;;15.47;12.13;;;5.60;78.20;;;;;;6228096;28;20487;-62
2023/03/19 03:41:37;;;;;;;16.67;12.73;;;5.60;79.00;;;;;;6251430;28;20841;-62
2023/03/19 03:44:42;;;;;;;18.17;13.10;;;5.60;78.60;;;;;;6251781;28;20447;-64
2023/03/19 03:47:46;;;;;;;17.27;11.60;;;5.60;78.80;;;;;;6251769;28;20443;-64
2023/03/19 03:50:50;;;;;;;13.13;11.37;;;5.50;79.00;;;;;;6252415;28;20470;-65
2023/03/19 03:53:53;;;;;;;17.00;13.77;;;5.60;79.60;;;;;;6261740;28;20463;-63
2023/03/19 03:56:56;;;;;;;14.20;12.70;;;5.60;79.70;;;;;;6253556;28;21960;-60
2023/03/19 04:00:01;;;;;;;16.00;13.30;;;5.50;79.70;;;;;;6249167;28;20478;-60
2023/03/19 04:03:05;;;;;;;15.57;13.37;;;5.50;79.80;;;;;;6248430;28;20482;-60
2023/03/19 04:06:13;;;;;;;15.03;12.27;;;5.50;80.30;;;;;;6248237;28;20483;-60
2023/03/19 04:09:16;;;;;;;17.90;12.50;;;5.40;80.70;;;;;;6251889;28;20471;-60
2023/03/19 04:12:20;;;;;;;14.90;12.33;;;5.40;81.30;;;;;;6251618;28;20500;-61
2023/03/19 04:15:25;;;;;;;13.63;11.83;;;5.40;81.40;;;;;;6250087;28;20984;-61
2023/03/19 04:18:28;;;;;;;14.63;12.87;;;5.40;81.80;;;;;;6251212;28;20482;-61
2023/03/19 04:21:31;;;;;;;12.70;11.20;;;5.40;82.00;;;;;;6251151;28;20482;-60
2023/03/19 04:24:35;;;;;;;15.50;12.30;;;5.40;82.10;;;;;;6250023;28;20471;-60
2023/03/19 04:27:38;;;;;;;14.07;12.53;;;5.40;82.30;;;;;;6252002;28;20511;-60
2023/03/19 04:30:43;;;;;;;15.13;12.97;;;5.40;83.50;;;;;;6251458;28;20582;-60
2023/03/19 04:33:47;;;;;;;14.00;12.60;;;5.30;82.90;;;;;;6252372;28;20485;-60
2023/03/19 04:36:50;;;;;;;15.30;13.80;;;5.30;83.20;;;;;;6246439;28;20490;-61
2023/03/19 04:39:54;;;;;;;14.77;12.53;;;5.30;83.40;;;;;;6251295;28;20979;-61
2023/03/19 04:42:57;;;;;;;14.97;12.70;;;5.30;83.80;;;;;;6251455;28;20475;-61
2023/03/19 04:46:01;;;;;;;15.03;13.43;;;5.20;84.10;;;;;;6251149;28;20883;-61
2023/03/19 04:49:04;;;;;;;19.10;12.43;;;5.20;84.50;;;;;;6251810;28;20467;-61
2023/03/19 04:52:08;;;;;;;14.67;12.60;;;5.20;84.60;;;;;;6250816;28;20467;-61
2023/03/19 04:55:11;;;;;;;15.20;13.33;;;5.20;84.80;;;;;;6250615;28;20501;-61
2023/03/19 04:58:15;;;;;;;14.97;13.40;;;5.20;84.90;;;;;;6250554;28;20986;-61
2023/03/19 05:01:19;;;;;;;18.03;14.00;;;5.20;85.50;;;;;;6251221;28;20983;-61
2023/03/19 05:04:23;;;;;;;13.73;12.07;;;5.20;86.20;;;;;;6251102;28;20501;-60
2023/03/19 05:07:27;;;;;;;16.67;12.17;;;5.10;86.80;;;;;;6250034;28;20558;-61
2023/03/19 05:10:31;;;;;;;13.23;11.30;;;5.10;87.20;;;;;;6250857;28;20824;-60
2023/03/19 05:13:34;;;;;;;14.47;12.80;;;5.10;87.70;;;;;;6251071;28;20485;-60
2023/03/19 05:16:39;;;;;;;17.00;14.07;;;5.10;87.90;;;;;;6254020;28;20789;-60
2023/03/19 05:19:42;;;;;;;15.00;11.63;;;5.10;88.00;;;;;;6252551;28;20476;-60
2023/03/19 05:22:46;;;;;;;15.93;14.10;;;5.10;88.70;;;;;;6251458;28;20533;-60
2023/03/19 05:25:49;;;;;;;13.90;11.80;;;5.10;89.20;;;;;;6250331;28;20490;-61
2023/03/19 05:28:52;;;;;;;22.93;13.57;;;5.20;89.40;;;;;;6250151;28;20487;-61
2023/03/19 05:31:57;;;;;;;15.27;12.10;;;5.20;89.20;;;;;;6250230;28;20478;-60
2023/03/19 05:35:00;;;;;;;15.03;12.57;;;5.20;89.00;;;;;;6249853;28;20859;-61
2023/03/19 05:38:03;;;;;;;16.27;12.83;;;5.20;88.80;;;;;;6250003;28;20486;-61
2023/03/19 05:41:07;;;;;;;16.03;12.83;;;5.30;88.90;;;;;;6251686;28;20479;-61
2023/03/19 05:44:10;;;;;;;13.70;12.30;;;5.40;88.50;;;;;;6235781;28;20478;-60
2023/03/19 05:47:15;;;;;;;17.20;14.20;;;5.40;88.10;;;;;;6249525;28;20479;-60
2023/03/19 05:50:18;;;;;;;13.87;12.37;;;5.50;87.90;;;;;;6249636;28;20479;-60
2023/03/19 05:53:23;;;;;;;16.37;14.10;;;5.50;87.90;;;;;;6250007;28;20475;-60
2023/03/19 05:56:26;;;;;;;14.60;13.10;;;5.60;88.30;;;;;;6249704;28;20479;-60
2023/03/19 05:59:29;;;;;;;20.37;13.33;;;5.70;88.40;;;;;;6249597;28;20474;-61
2023/03/19 06:02:34;;;;;;;13.37;11.97;;;5.90;88.30;;;;;;6249448;28;21066;-61
2023/03/19 06:05:37;;;;;;;13.87;12.47;;;6.10;87.70;;;;;;6249510;28;20483;-62
2023/03/19 06:08:41;;;;;;;13.80;12.13;;;6.20;86.90;;;;;;6249617;28;21470;-61
2023/03/19 06:11:44;;;;;;;14.67;13.20;;;6.30;85.90;;;;;;6249559;28;20928;-60
2023/03/19 06:14:48;;;;;;;17.60;14.30;;;6.50;85.30;;;;;;6249269;28;20622;-61
2023/03/19 06:17:52;;;;;;;17.13;14.20;;;6.60;84.40;;;;;;6249401;28;20814;-61
2023/03/19 06:20:55;;;;;;;16.17;14.33;;;6.60;83.60;;;;;;6249034;28;20884;-61
2023/03/19 06:23:59;;;;;;;18.80;14.63;;;6.80;83.70;;;;;;6249549;28;20576;-60
2023/03/19 06:27:02;;;;;;;16.13;13.90;;;7.00;83.20;;;;;;6249462;28;20473;-60
2023/03/19 06:30:07;;;;;;;17.67;12.60;;;7.10;82.70;;;;;;6248985;28;20482;-61
2023/03/19 06:33:13;;;;;;;13.50;12.10;;;7.20;82.00;;;;;;6249706;28;20474;-61
2023/03/19 06:36:16;;;;;;;13.20;10.90;;;7.40;80.90;;;;;;6248549;28;20493;-61
2023/03/19 06:39:19;;;;;;;16.27;11.60;;;7.60;80.50;;;;;;6249133;28;21046;-61
2023/03/19 06:42:23;;;;;;;14.87;12.87;;;7.70;79.80;;;;;;6249111;28;20475;-61
2023/03/19 06:45:26;;;;;;;15.10;12.60;;;7.80;79.40;;;;;;6240268;28;20504;-61
2023/03/19 06:48:31;;;;;;;13.53;12.00;;;8.00;78.70;;;;;;6249191;28;20553;-61
2023/03/19 06:51:34;;;;;;;15.37;13.20;;;8.20;77.20;;;;;;6249028;28;20995;-61
2023/03/19 06:54:37;;;;;;;16.67;12.43;;;8.40;76.40;;;;;;6250726;28;20467;-61
2023/03/19 06:57:40;;;;;;;14.93;13.20;;;8.50;76.00;;;;;;6253641;28;20779;-61
2023/03/19 07:00:44;;;;;;;12.93;11.63;;;8.70;74.90;;;;;;6253922;28;20477;-61
2023/03/19 07:03:48;;;;;;;14.73;13.33;;;9.00;74.60;;;;;;6254348;28;20463;-61
2023/03/19 07:06:52;;;;;;;14.83;12.77;;;9.10;73.40;;;;;;6253842;28;20478;-60
2023/03/19 07:09:55;;;;;;;13.83;12.33;;;9.50;73.70;;;;;;6253824;28;20474;-61
2023/03/19 07:12:58;;;;;;;13.93;12.53;;;11.50;69.20;;;;;;6253669;28;20486;-61
2023/03/19 07:16:01;;;;;;;15.20;12.07;;;14.00;61.00;;;;;;6253779;28;20839;-61
2023/03/19 07:19:06;;;;;;;12.37;11.07;;;16.00;55.00;;;;;;6253447;28;20463;-61
2023/03/19 07:22:09;;;;;;;15.30;11.63;;;18.00;48.70;;;;;;6253613;28;20481;-61
2023/03/19 07:25:12;;;;;;;12.90;11.70;;;19.60;43.40;;;;;;6253420;28;20474;-61
2023/03/19 07:28:16;;;;;;;14.27;12.87;;;21.20;40.00;;;;;;6253401;28;20228;-62
2023/03/19 07:31:19;;;;;;;16.03;13.10;;;22.80;36.50;;;;;;6254336;28;20571;-60
2023/03/19 07:34:25;;;;;;;16.03;14.37;;;23.90;31.90;;;;;;6254557;28;20652;-61
2023/03/19 07:37:28;;;;;;;15.47;13.97;;;24.80;30.80;;;;;;6256019;28;20693;-61
2023/03/19 07:40:31;;;;;;;16.27;14.80;;;25.90;28.70;;;;;;6258496;28;20228;-61
2023/03/19 07:43:35;;;;;;;37.80;30.50;;;26.90;27.10;;;;;;6254509;28;20231;-62
2023/03/19 07:46:38;;;;;;;16.27;14.87;;;27.70;25.30;;;;;;6252575;28;20246;-62
2023/03/19 07:49:43;;;;;;;15.40;14.07;;;28.30;24.30;;;;;;6248769;28;20314;-62
2023/03/19 07:52:46;;;;;;;15.50;14.10;;;28.90;23.40;;;;;;6252951;28;20314;-61
2023/03/19 07:55:50;;;;;;;14.97;13.67;;;29.60;22.80;;;;;;6252859;28;20243;-62
2023/03/19 07:58:53;;;;;;;14.63;13.30;;;29.60;22.20;;;;;;6252653;28;20232;-62
2023/03/19 08:01:56;;;;;;;14.23;13.00;;;29.80;22.00;;;;;;6252264;28;20246;-62
2023/03/19 08:05:03;;;;;;;14.57;13.47;;;30.40;21.40;;;;;;6252168;28;20239;-62
2023/03/19 08:08:06;;;;;;;13.98;12.88;;;31.10;20.80;;;;;;6252004;28;20227;-63
2023/03/19 08:11:10;;;;;;;15.45;14.20;;;31.30;20.40;;;;;;6252364;28;20242;-63
2023/03/19 08:14:18;;;;;;;16.83;15.32;;;31.70;19.80;;;;;;6252159;28;20224;-63
2023/03/19 08:17:21;;;;;;;15.95;14.57;;;31.60;19.50;;;;;;6252038;28;20701;-62
2023/03/19 08:20:25;;;;;;;15.93;14.63;;;31.00;19.40;;;;;;6252237;28;20244;-63
2023/03/19 08:23:29;;;;;;;16.15;14.95;;;30.10;20.30;;;;;;6252604;28;20755;-62
2023/03/19 08:26:32;;;;;;;16.58;15.23;;;29.90;20.10;;;;;;6252192;28;20669;-62
2023/03/19 08:29:36;;;;;;;15.93;14.60;;;30.60;19.90;;;;;;6252237;28;20223;-62
2023/03/19 08:32:39;;;;;;;16.90;15.60;;;31.70;19.90;;;;;;6252136;28;20232;-61
2023/03/19 08:35:44;;;;;;;16.90;15.15;;;32.60;18.50;;;;;;6251749;28;20223;-62
2023/03/19 08:38:47;;;;;;;16.60;15.15;;;33.30;18.00;;;;;;6252034;28;20231;-61
2023/03/19 08:41:50;;;;;;;16.70;15.20;;;34.00;17.40;;;;;;6251981;28;20652;-63
2023/03/19 08:44:53;;;;;;;17.85;16.25;;;34.30;16.80;;;;;;6251435;28;20247;-62
2023/03/19 08:47:57;;;;;;;16.80;15.35;;;34.40;16.70;;;;;;6251568;28;20602;-62
2023/03/19 08:51:05;;;;;;;18.35;16.75;;;34.30;16.40;;;;;;6251374;28;20235;-62
2023/03/19 08:54:10;;;;;;;18.15;16.75;;;34.40;16.40;;;;;;6251277;28;20224;-62
2023/03/19 08:57:13;;;;;;;19.15;17.70;;;33.20;16.80;;;;;;6251115;28;20231;-62
2023/03/19 09:00:18;;;;;;;20.38;18.70;;;34.00;16.90;;;;;;6251552;28;20238;-62
2023/03/19 09:03:21;;;;;;;20.90;18.95;;;34.90;16.60;;;;;;6251855;28;20231;-62
2023/03/19 09:06:26;;;;;;;19.85;18.25;;;34.70;16.00;;;;;;6251574;28;20233;-61
2023/03/19 09:09:29;;;;;;;18.85;17.45;;;35.30;16.30;;;;;;6251358;28;20235;-61
2023/03/19 09:12:32;;;;;;;18.98;17.38;;;36.50;16.00;;;;;;6251193;28;20223;-62
2023/03/19 09:15:35;;;;;;;20.67;18.98;;;36.40;14.90;;;;;;6251520;28;20242;-62
2023/03/19 09:18:39;;;;;;;17.08;15.68;;;36.00;15.20;;;;;;6250054;28;20238;-62
2023/03/19 09:21:44;;;;;;;18.70;17.15;;;36.50;14.60;;;;;;6251193;28;20232;-61
2023/03/19 09:24:47;;;;;;;19.88;18.17;;;37.00;14.60;;;;;;6251726;28;20219;-61
2023/03/19 09:27:50;;;;;;;18.88;17.48;;;37.70;14.20;;;;;;6252731;28;20239;-62
2023/03/19 09:30:54;;;;;;;20.10;18.40;;;38.60;14.00;;;;;;6251326;28;20250;-62
2023/03/19 09:33:58;;;;;;;19.13;17.55;;;37.00;14.00;;;;;;6250288;28;20668;-63
2023/03/19 09:37:02;;;;;;;16.52;14.95;;;36.70;14.30;;;;;;6250068;28;20566;-62
2023/03/19 09:40:07;;;;;;;17.13;15.82;;;37.50;13.90;;;;;;6242862;28;20227;-63
2023/03/19 09:43:30;;;;;;;16.55;15.13;;;39.00;13.40;;;;;;6234932;28;20220;-62
2023/03/19 09:46:43;;;;;;;17.92;16.52;;;40.20;12.80;;;;;;6248366;28;20245;-62
2023/03/19 09:49:48;;;;;;;17.90;16.50;;;40.80;12.00;;;;;;6225601;28;20236;-62
2023/03/19 09:52:58;;;;;;;18.63;16.95;;;41.00;11.60;;;;;;6226005;28;20232;-62
2023/03/19 09:56:05;;;;;;;18.70;16.60;;;42.30;11.50;;;;;;6225278;28;20232;-62
2023/03/19 09:59:09;;;;;;;17.98;16.58;;;43.30;10.90;;;;;;6224140;28;20566;-62
2023/03/19 10:02:40;;;;;;;17.98;16.48;;;42.70;10.70;;;;;;6224158;28;20243;-63
2023/03/19 10:05:51;;;;;;;17.52;16.23;;;41.00;11.40;;;;;;6223973;28;20223;-62
2023/03/19 10:09:12;;;;;;;18.63;17.10;;;39.40;11.80;;;;;;6224186;28;20205;-62
2023/03/19 10:12:26;;;;;;;18.42;16.92;;;37.50;12.70;;;;;;6224084;28;20231;-61
2023/03/19 10:15:30;;;;;;;17.50;16.08;;;37.50;13.10;;;;;;6225178;28;20232;-63
2023/03/19 10:18:38;;;;;;;17.35;15.85;;;37.40;12.90;;;;;;6226350;28;20236;-64
2023/03/19 10:21:46;;;;;;;17.17;15.77;;;37.40;13.00;;;;;;6225651;28;20297;-64
2023/03/19 10:24:53;;;;;;;18.13;16.63;;;37.20;13.20;;;;;;6225710;28;20231;-63
2023/03/19 10:28:05;;;;;;;17.38;15.68;;;36.50;13.40;;;;;;6225323;28;20363;-64
2023/03/19 10:31:22;;;;;;;17.13;15.82;;;36.20;13.40;;;;;;6225249;28;20247;-64
2023/03/19 10:34:34;;;;;;;17.55;16.02;;;36.60;13.70;;;;;;6225416;28;20683;-63
2023/03/19 10:37:38;;;;;;;17.52;16.02;;;36.90;12.90;;;;;;6225326;28;20239;-62
2023/03/19 10:40:51;;;;;;;17.20;15.85;;;36.10;13.70;;;;;;6224718;28;20572;-64
2023/03/19 10:43:58;;;;;;;17.88;16.38;;;35.70;13.90;;;;;;6225121;28;20228;-64
2023/03/19 10:47:12;;;;;;;18.38;16.77;;;35.60;13.90;;;;;;6224979;28;20238;-64
2023/03/19 10:50:17;;;;;;;18.73;17.10;;;35.00;14.10;;;;;;6224585;28;20228;-64
2023/03/19 10:53:30;;;;;;;18.00;16.33;;;34.30;14.60;;;;;;6225010;28;20224;-64
2023/03/19 10:56:35;;;;;;;17.75;16.15;;;33.80;14.90;;;;;;6224529;28;20247;-65
2023/03/19 10:59:38;;;;;;;18.65;16.95;;;33.20;15.30;;;;;;6224634;28;20240;-62
2023/03/19 11:02:47;;;;;;;16.25;14.85;;;30.90;16.80;;;;;;6220172;28;20242;-63
2023/03/19 11:06:05;;;;;;;17.80;16.23;;;30.10;17.70;;;;;;6224906;28;20686;-64
2023/03/19 11:09:18;;;;;;;18.23;16.73;;;29.90;18.00;;;;;;6225051;28;20550;-63
2023/03/19 11:12:27;;;;;;;16.20;14.80;;;28.80;18.80;;;;;;6224571;28;20569;-63
2023/03/19 11:15:36;;;;;;;18.87;16.97;;;28.20;19.30;;;;;;6224715;28;20327;-63
2023/03/19 11:18:40;;;;;;;17.27;15.70;;;27.00;20.20;;;;;;6225177;28;20239;-63
2023/03/19 11:21:53;;;;;;;18.10;16.30;;;26.60;20.70;;;;;;6224922;28;20220;-63
2023/03/19 11:25:00;;;;;;;17.73;16.07;;;26.70;20.80;;;;;;6224842;28;20229;-63
2023/03/19 11:28:09;;;;;;;16.87;15.27;;;26.60;21.30;;;;;;6224837;28;20233;-63
2023/03/19 11:31:19;;;;;;;18.23;16.53;;;25.60;21.90;;;;;;6235697;28;20240;-63
2023/03/19 11:34:33;;;;;;;16.30;14.90;;;25.00;22.50;;;;;;6246847;28;20219;-64
2023/03/19 11:37:50;;;;;;;18.50;16.63;;;25.50;22.50;;;;;;6245451;28;20224;-62
2023/03/19 11:41:02;;;;;;;17.87;16.07;;;25.90;22.10;;;;;;6247169;28;20239;-63
2023/03/19 11:44:14;;;;;;;18.47;16.00;;;27.10;21.60;;;;;;6246066;28;20661;-65
2023/03/19 11:47:27;;;;;;;18.40;16.50;;;28.60;20.70;;;;;;6242007;28;20251;-66
2023/03/19 11:50:40;;;;;;;16.80;15.40;;;29.80;19.60;;;;;;6231203;28;20217;-65
2023/03/19 11:53:59;;;;;;;14.98;13.57;;;31.00;18.90;;;;;;6241850;28;20238;-65
2023/03/19 11:57:08;;;;;;;17.95;16.25;;;32.90;17.60;;;;;;6253146;28;20238;-65
2023/03/19 12:00:24;;;;;;;17.75;15.90;;;32.60;17.30;;;;;;6253031;28;20289;-65
2023/03/19 12:04:09;;;;;;;17.60;16.10;;;34.00;16.80;;;;;;6228414;28;20235;-65
2023/03/19 12:07:23;;;;;;;17.40;15.90;;;34.70;16.00;;;;;;6228592;28;20544;-63
2023/03/19 12:10:34;;;;;;;18.67;16.85;;;33.60;16.30;;;;;;6228498;28;20232;-63
2023/03/19 12:13:57;;;;;;;17.13;15.63;;;34.70;15.80;;;;;;6228349;28;20302;-64
2023/03/19 12:17:16;;;;;;;17.67;16.08;;;35.20;15.80;;;;;;6228082;28;20259;-62
2023/03/19 12:20:46;;;;;;;17.10;15.55;;;36.90;14.90;;;;;;6249376;28;20231;-66
2023/03/19 12:24:02;;;;;;;17.83;16.25;;;38.30;14.20;;;;;;6247816;28;20234;-63
2023/03/19 12:27:17;;;;;;;17.35;15.75;;;38.20;14.10;;;;;;6252127;28;20254;-63
2023/03/19 12:30:29;;;;;;;17.15;15.65;;;38.30;13.90;;;;;;6251595;28;20239;-63
2023/03/19 12:33:43;;;;;;;18.10;16.33;;;37.10;14.40;;;;;;6251355;28;20692;-64
2023/03/19 12:36:52;;;;;;;19.35;17.55;;;35.00;15.60;;;;;;6251497;28;20574;-64
2023/03/19 12:40:06;;;;;;;17.85;16.15;;;35.80;15.70;;;;;;6249203;28;20254;-63
2023/03/19 12:43:17;;;;;;;17.52;15.98;;;35.00;15.60;;;;;;6252118;28;20673;-64
2023/03/19 12:46:27;;;;;;;18.42;16.50;;;34.30;16.10;;;;;;6252037;28;20704;-66
2023/03/19 12:49:37;;;;;;;16.42;15.00;;;32.70;17.50;;;;;;6252308;28;20673;-64
2023/03/19 12:52:43;;;;;;;18.02;16.33;;;32.80;17.60;;;;;;6244366;28;20239;-65
2023/03/19 12:55:50;;;;;;;17.63;15.95;;;34.40;16.70;;;;;;6236855;28;20330;-63
2023/03/19 12:58:59;;;;;;;18.73;16.92;;;33.80;16.80;;;;;;6252389;28;20242;-66
2023/03/19 13:02:12;;;;;;;17.67;16.02;;;32.50;17.70;;;;;;6252090;28;20678;-65
2023/03/19 13:05:26;;;;;;;16.90;15.27;;;31.60;18.10;;;;;;6251724;28;20273;-64
2023/03/19 13:08:33;;;;;;;17.20;15.50;;;30.20;19.60;;;;;;6251883;28;20661;-63
2023/03/19 13:11:45;;;;;;;16.30;14.63;;;29.80;19.80;;;;;;6242893;28;20550;-67
2023/03/19 13:14:56;;;;;;;17.37;15.93;;;28.50;20.90;;;;;;6251502;28;20520;-64
2023/03/19 13:18:15;;;;;;;18.00;16.30;;;27.40;21.70;;;;;;6252143;28;20211;-64
2023/03/19 13:21:25;;;;;;;18.37;16.77;;;26.40;22.80;;;;;;6251766;28;20239;-64
2023/03/19 13:24:30;;;;;;;16.70;14.97;;;25.30;23.80;;;;;;6252878;28;20227;-64
2023/03/19 13:27:36;;;;;;;15.90;14.33;;;24.10;24.80;;;;;;6252001;28;20231;-62
2023/03/19 13:30:41;;;;;;;17.20;14.90;;;23.50;26.30;;;;;;6251243;28;20828;-65
2023/03/19 13:33:53;;;;;;;15.27;13.83;;;23.20;26.20;;;;;;6251239;28;20234;-64
2023/03/19 13:37:06;;;;;;;17.37;15.57;;;23.00;26.30;;;;;;6251385;28;20307;-63
2023/03/19 13:40:39;;;;;;;16.27;14.60;;;22.50;26.60;;;;;;6250735;28;20687;-65
2023/03/19 13:43:53;;;;;;;15.67;14.07;;;21.50;27.80;;;;;;6250762;28;20315;-63
2023/03/19 13:46:56;;;;;;;16.07;14.47;;;21.40;28.10;;;;;;6251157;28;20673;-63
2023/03/19 13:50:25;;;;;;;15.70;14.20;;;20.80;28.80;;;;;;6250306;28;20624;-63
2023/03/19 13:53:42;;;;;;;15.17;12.83;;;20.80;29.20;;;;;;6236974;28;20698;-63
2023/03/19 13:57:34;;;;;;;14.87;13.37;;;20.70;29.50;;;;;;6225022;28;20350;-65
2023/03/19 14:00:58;;;;;;;18.70;16.80;;;20.80;29.30;;;;;;6159663;28;20268;-63
2023/03/19 14:04:03;;;;;;;14.93;13.03;;;20.90;29.40;;;;;;6225258;28;20590;-63
2023/03/19 14:07:16;;;;;;;15.23;13.73;;;20.80;29.50;;;;;;6226056;28;20314;-64
2023/03/19 14:10:25;;;;;;;16.03;14.13;;;20.80;29.60;;;;;;6225811;28;20242;-65
2023/03/19 14:13:34;;;;;;;17.00;14.80;;;20.50;29.70;;;;;;6217221;28;20240;-66
2023/03/19 14:16:43;;;;;;;15.63;13.97;;;20.40;29.90;;;;;;6239840;28;20318;-65
2023/03/19 14:19:47;;;;;;;16.80;14.03;;;20.00;30.40;;;;;;6250234;28;20232;-64
2023/03/19 14:23:11;;;;;;;15.50;13.90;;;19.90;31.00;;;;;;6250722;28;20242;-64
2023/03/19 14:26:19;;;;;;;15.53;13.93;;;19.70;31.40;;;;;;6249717;28;20247;-65
2023/03/19 14:29:25;;;;;;;16.20;14.50;;;19.50;31.80;;;;;;6250144;28;20246;-63
2023/03/19 14:32:34;;;;;;;16.60;14.90;;;19.50;32.10;;;;;;6249283;28;20236;-63
2023/03/19 14:35:44;;;;;;;20.23;15.30;;;19.30;32.80;;;;;;6250208;28;20248;-64
2023/03/19 14:38:50;;;;;;;17.10;13.83;;;19.40;32.20;;;;;;6249516;28;20346;-63
2023/03/19 14:42:03;;;;;;;16.10;14.40;;;19.50;32.30;;;;;;6250042;28;20224;-64
2023/03/19 14:45:43;;;;;;;16.30;13.50;;;19.50;32.20;;;;;;6249983;28;20236;-65
2023/03/19 14:49:20;;;;;;;15.93;14.23;;;19.50;32.30;;;;;;6238902;28;20232;-64
2023/03/19 14:52:28;;;;;;;15.30;13.70;;;19.00;32.70;;;;;;6243151;28;20564;-62
2023/03/19 14:55:36;;;;;;;15.87;13.40;;;18.90;33.00;;;;;;6224522;28;20569;-62
2023/03/19 14:58:50;;;;;;;15.00;13.47;;;18.80;33.10;;;;;;6226378;28;20766;-63
2023/03/19 15:01:54;;;;;;;19.47;13.87;;;18.40;33.60;;;;;;6227167;28;20237;-64
2023/03/19 15:04:58;;;;;;;16.57;12.33;;;18.30;34.00;;;;;;6226095;28;20232;-65
2023/03/19 15:08:05;;;;;;;15.37;13.77;;;18.30;34.40;;;;;;6225200;28;20276;-66
2023/03/19 15:11:30;;;;;;;14.10;12.23;;;18.30;34.40;;;;;;6225301;28;20229;-63
2023/03/19 15:15:01;;;;;;;13.97;12.47;;;18.30;34.40;;;;;;6224972;28;20244;-63
2023/03/19 15:18:09;;;;;;;18.20;15.30;;;18.40;34.40;;;;;;6228980;28;20225;-65
2023/03/19 15:21:13;;;;;;;16.70;12.90;;;18.10;34.40;;;;;;6229741;28;20334;-63
2023/03/19 15:24:17;;;;;;;14.03;12.43;;;17.90;34.90;;;;;;6230548;28;20228;-65
2023/03/19 15:27:23;;;;;;;16.40;14.77;;;17.90;35.00;;;;;;6229535;28;20232;-63
2023/03/19 15:30:29;;;;;;;17.77;14.63;;;17.90;35.00;;;;;;6229655;28;20236;-63
2023/03/19 15:33:35;;;;;;;16.30;14.60;;;17.90;35.40;;;;;;6228991;28;20224;-63
2023/03/19 15:36:46;;;;;;;18.23;13.80;;;17.70;35.70;;;;;;6229604;28;20314;-64
2023/03/19 15:39:54;;;;;;;15.37;13.77;;;17.60;36.00;;;;;;6227890;28;20240;-65
2023/03/19 15:43:02;;;;;;;15.07;13.47;;;17.60;36.40;;;;;;6229260;28;20307;-64
2023/03/19 15:46:11;;;;;;;16.77;13.90;;;17.60;36.70;;;;;;6228857;28;20472;-63
2023/03/19 15:49:19;;;;;;;20.20;16.23;;;17.60;36.70;;;;;;6228834;28;20241;-63
2023/03/19 15:52:24;;;;;;;21.10;16.27;;;17.50;36.90;;;;;;6228553;28;20227;-62